sensor_id;sensor_type;location;lat;lon;timestamp;temperature;humidity
41481;DHT22;27217;51.220;5.308;2022-07-04T00:00:18;15.40;99.90
41481;DHT22;27217;51.220;5.308;2022-07-04T00:02:45;15.40;99.90
41481;DHT22;27217;51.220;5.308;2022-07-04T00:05:11;15.50;99.90
41481;DHT22;27217;51.220;5.308;2022-07-04T00:07:41;15.60;99.90
41481;DHT22;27217;51.220;5.308;2022-07-04T00:10:09;15.60;99.90
41481;DHT22;27217;51.220;5.308;2022-07-04T00:12:35;15.60;99.90
41481;DHT22;27217;51.220;5.308;2022-07-04T00:15:01;15.50;99.90
41481;DHT22;27217;51.220;5.308;2022-07-04T00:17:27;15.40;99.90
41481;DHT22;27217;51.220;5.308;2022-07-04T00:19:53;15.40;99.90
41481;DHT22;27217;51.220;5.308;2022-07-04T00:22:19;15.20;99.90
41481;DHT22;27217;51.220;5.308;2022-07-04T00:24:44;15.10;99.90
41481;DHT22;27217;51.220;5.308;2022-07-04T00:27:10;15.00;99.90
41481;DHT22;27217;51.220;5.308;2022-07-04T00:29:36;14.90;99.90
41481;DHT22;27217;51.220;5.308;2022-07-04T00:32:03;14.90;99.90
41481;DHT22;27217;51.220;5.308;2022-07-04T00:34:29;14.70;99.90
41481;DHT22;27217;51.220;5.308;2022-07-04T00:36:54;14.70;99.90
41481;DHT22;27217;51.220;5.308;2022-07-04T00:39:20;14.80;99.90
41481;DHT22;27217;51.220;5.308;2022-07-04T00:41:47;14.80;99.90
41481;DHT22;27217;51.220;5.308;2022-07-04T00:44:13;14.70;99.90
41481;DHT22;27217;51.220;5.308;2022-07-04T00:46:41;14.60;99.90
41481;DHT22;27217;51.220;5.308;2022-07-04T00:49:07;14.50;99.90
41481;DHT22;27217;51.220;5.308;2022-07-04T00:51:33;14.60;99.90
41481;DHT22;27217;51.220;5.308;2022-07-04T00:53:59;14.60;99.90
41481;DHT22;27217;51.220;5.308;2022-07-04T00:56:44;14.50;99.90
41481;DHT22;27217;51.220;5.308;2022-07-04T00:59:10;14.40;99.90
41481;DHT22;27217;51.220;5.308;2022-07-04T01:01:36;14.30;99.90
41481;DHT22;27217;51.220;5.308;2022-07-04T01:04:22;14.30;99.90
41481;DHT22;27217;51.220;5.308;2022-07-04T01:06:48;14.30;99.90
41481;DHT22;27217;51.220;5.308;2022-07-04T01:09:14;14.20;99.90
41481;DHT22;27217;51.220;5.308;2022-07-04T01:11:40;14.40;99.90
41481;DHT22;27217;51.220;5.308;2022-07-04T01:14:26;14.60;99.90
41481;DHT22;27217;51.220;5.308;2022-07-04T01:16:51;14.60;99.90
41481;DHT22;27217;51.220;5.308;2022-07-04T01:19:37;14.50;99.90
41481;DHT22;27217;51.220;5.308;2022-07-04T01:22:05;14.30;99.90
41481;DHT22;27217;51.220;5.308;2022-07-04T01:24:34;14.20;99.90
41481;DHT22;27217;51.220;5.308;2022-07-04T01:26:59;14.10;99.90
41481;DHT22;27217;51.220;5.308;2022-07-04T01:29:45;14.00;99.90
41481;DHT22;27217;51.220;5.308;2022-07-04T01:32:30;14.00;99.90
41481;DHT22;27217;51.220;5.308;2022-07-04T01:35:16;14.10;99.90
41481;DHT22;27217;51.220;5.308;2022-07-04T01:38:01;14.20;99.90
41481;DHT22;27217;51.220;5.308;2022-07-04T01:40:27;14.20;99.90
41481;DHT22;27217;51.220;5.308;2022-07-04T01:42:53;14.10;99.90
41481;DHT22;27217;51.220;5.308;2022-07-04T01:45:38;14.10;99.90
41481;DHT22;27217;51.220;5.308;2022-07-04T01:48:07;13.90;99.90
41481;DHT22;27217;51.220;5.308;2022-07-04T01:50:54;13.80;99.90
41481;DHT22;27217;51.220;5.308;2022-07-04T01:53:39;13.60;99.90
41481;DHT22;27217;51.220;5.308;2022-07-04T01:56:05;13.60;99.90
41481;DHT22;27217;51.220;5.308;2022-07-04T01:58:50;13.50;99.90
41481;DHT22;27217;51.220;5.308;2022-07-04T02:01:16;13.30;99.90
41481;DHT22;27217;51.220;5.308;2022-07-04T02:03:57;13.40;99.90
41481;DHT22;27217;51.220;5.308;2022-07-04T02:06:23;13.60;99.90
41481;DHT22;27217;51.220;5.308;2022-07-04T02:09:08;13.60;99.90
41481;DHT22;27217;51.220;5.308;2022-07-04T02:11:44;13.70;99.90
41481;DHT22;27217;51.220;5.308;2022-07-04T02:14:29;13.80;99.90
41481;DHT22;27217;51.220;5.308;2022-07-04T02:16:55;14.00;99.90
41481;DHT22;27217;51.220;5.308;2022-07-04T02:19:21;14.00;99.90
41481;DHT22;27217;51.220;5.308;2022-07-04T02:21:46;14.40;99.90
41481;DHT22;27217;51.220;5.308;2022-07-04T02:24:12;14.00;99.90
41481;DHT22;27217;51.220;5.308;2022-07-04T02:26:38;14.20;99.90
41481;DHT22;27217;51.220;5.308;2022-07-04T02:29:04;14.20;99.90
41481;DHT22;27217;51.220;5.308;2022-07-04T02:31:30;14.00;99.90
41481;DHT22;27217;51.220;5.308;2022-07-04T02:33:55;13.70;99.90
41481;DHT22;27217;51.220;5.308;2022-07-04T02:36:22;13.80;99.90
41481;DHT22;27217;51.220;5.308;2022-07-04T02:38:48;13.70;99.90
41481;DHT22;27217;51.220;5.308;2022-07-04T02:41:14;13.80;99.90
41481;DHT22;27217;51.220;5.308;2022-07-04T02:43:39;14.00;99.90
41481;DHT22;27217;51.220;5.308;2022-07-04T02:46:05;14.00;99.90
41481;DHT22;27217;51.220;5.308;2022-07-04T02:48:31;14.00;99.90
41481;DHT22;27217;51.220;5.308;2022-07-04T02:50:56;14.00;99.90
41481;DHT22;27217;51.220;5.308;2022-07-04T02:53:22;13.80;99.90
41481;DHT22;27217;51.220;5.308;2022-07-04T02:55:48;13.80;99.90
41481;DHT22;27217;51.220;5.308;2022-07-04T02:58:13;13.70;99.90
41481;DHT22;27217;51.220;5.308;2022-07-04T03:00:39;13.70;99.90
41481;DHT22;27217;51.220;5.308;2022-07-04T03:03:05;13.60;99.90
41481;DHT22;27217;51.220;5.308;2022-07-04T03:05:31;13.40;99.90
41481;DHT22;27217;51.220;5.308;2022-07-04T03:07:57;13.50;99.90
41481;DHT22;27217;51.220;5.308;2022-07-04T03:10:23;13.80;99.90
41481;DHT22;27217;51.220;5.308;2022-07-04T03:12:49;13.90;99.90
41481;DHT22;27217;51.220;5.308;2022-07-04T03:15:14;13.60;99.90
41481;DHT22;27217;51.220;5.308;2022-07-04T03:17:40;13.40;99.90
41481;DHT22;27217;51.220;5.308;2022-07-04T03:20:06;13.20;99.90
41481;DHT22;27217;51.220;5.308;2022-07-04T03:22:32;13.00;99.90
41481;DHT22;27217;51.220;5.308;2022-07-04T03:24:58;12.70;99.90
41481;DHT22;27217;51.220;5.308;2022-07-04T03:27:23;12.80;99.90
41481;DHT22;27217;51.220;5.308;2022-07-04T03:29:49;12.80;99.90
41481;DHT22;27217;51.220;5.308;2022-07-04T03:32:16;13.00;99.90
41481;DHT22;27217;51.220;5.308;2022-07-04T03:34:42;12.80;99.90
41481;DHT22;27217;51.220;5.308;2022-07-04T03:37:07;12.80;99.90
41481;DHT22;27217;51.220;5.308;2022-07-04T03:39:33;13.00;99.90
41481;DHT22;27217;51.220;5.308;2022-07-04T03:41:58;13.10;99.90
41481;DHT22;27217;51.220;5.308;2022-07-04T03:44:24;13.10;99.90
41481;DHT22;27217;51.220;5.308;2022-07-04T03:46:50;13.00;99.90
41481;DHT22;27217;51.220;5.308;2022-07-04T03:49:15;13.10;99.90
41481;DHT22;27217;51.220;5.308;2022-07-04T03:51:41;13.20;99.90
41481;DHT22;27217;51.220;5.308;2022-07-04T03:54:06;13.30;99.90
41481;DHT22;27217;51.220;5.308;2022-07-04T03:56:32;13.20;99.90
41481;DHT22;27217;51.220;5.308;2022-07-04T03:58:58;13.10;99.90
41481;DHT22;27217;51.220;5.308;2022-07-04T04:01:23;13.10;99.90
41481;DHT22;27217;51.220;5.308;2022-07-04T04:03:50;13.10;99.90
41481;DHT22;27217;51.220;5.308;2022-07-04T04:06:34;13.00;99.90
41481;DHT22;27217;51.220;5.308;2022-07-04T04:08:59;12.80;99.90
41481;DHT22;27217;51.220;5.308;2022-07-04T04:11:25;12.90;99.90
41481;DHT22;27217;51.220;5.308;2022-07-04T04:13:51;12.90;99.90
41481;DHT22;27217;51.220;5.308;2022-07-04T04:16:17;12.90;99.90
41481;DHT22;27217;51.220;5.308;2022-07-04T04:18:43;13.00;99.90
41481;DHT22;27217;51.220;5.308;2022-07-04T04:21:09;12.90;99.90
41481;DHT22;27217;51.220;5.308;2022-07-04T04:23:35;13.20;99.90
41481;DHT22;27217;51.220;5.308;2022-07-04T04:26:00;13.20;99.90
41481;DHT22;27217;51.220;5.308;2022-07-04T04:28:26;13.00;99.90
41481;DHT22;27217;51.220;5.308;2022-07-04T04:30:52;13.10;99.90
41481;DHT22;27217;51.220;5.308;2022-07-04T04:33:18;13.10;99.90
41481;DHT22;27217;51.220;5.308;2022-07-04T04:35:44;13.10;99.90
41481;DHT22;27217;51.220;5.308;2022-07-04T04:38:09;13.40;99.90
41481;DHT22;27217;51.220;5.308;2022-07-04T04:40:35;13.50;99.90
41481;DHT22;27217;51.220;5.308;2022-07-04T04:43:01;13.40;99.90
41481;DHT22;27217;51.220;5.308;2022-07-04T04:45:27;13.50;99.90
41481;DHT22;27217;51.220;5.308;2022-07-04T04:47:53;13.50;99.90
41481;DHT22;27217;51.220;5.308;2022-07-04T04:50:20;13.40;99.90
41481;DHT22;27217;51.220;5.308;2022-07-04T04:52:46;13.80;99.90
41481;DHT22;27217;51.220;5.308;2022-07-04T04:55:11;13.70;99.90
41481;DHT22;27217;51.220;5.308;2022-07-04T04:57:37;13.60;99.90
41481;DHT22;27217;51.220;5.308;2022-07-04T05:00:03;13.80;99.90
41481;DHT22;27217;51.220;5.308;2022-07-04T05:02:29;13.70;99.90
41481;DHT22;27217;51.220;5.308;2022-07-04T05:04:55;13.60;99.90
41481;DHT22;27217;51.220;5.308;2022-07-04T05:07:21;13.60;99.90
41481;DHT22;27217;51.220;5.308;2022-07-04T05:09:47;13.70;99.90
41481;DHT22;27217;51.220;5.308;2022-07-04T05:12:13;13.90;99.90
41481;DHT22;27217;51.220;5.308;2022-07-04T05:14:38;13.80;99.90
41481;DHT22;27217;51.220;5.308;2022-07-04T05:17:04;13.80;99.90
41481;DHT22;27217;51.220;5.308;2022-07-04T05:19:30;14.00;99.90
41481;DHT22;27217;51.220;5.308;2022-07-04T05:21:56;14.00;99.90
41481;DHT22;27217;51.220;5.308;2022-07-04T05:24:22;14.00;99.90
41481;DHT22;27217;51.220;5.308;2022-07-04T05:26:47;14.20;99.90
41481;DHT22;27217;51.220;5.308;2022-07-04T05:29:13;14.40;99.90
41481;DHT22;27217;51.220;5.308;2022-07-04T05:31:39;14.90;99.90
41481;DHT22;27217;51.220;5.308;2022-07-04T05:34:05;14.80;99.90
41481;DHT22;27217;51.220;5.308;2022-07-04T05:36:31;14.70;99.90
41481;DHT22;27217;51.220;5.308;2022-07-04T05:38:57;14.90;99.90
41481;DHT22;27217;51.220;5.308;2022-07-04T05:41:23;15.00;99.90
41481;DHT22;27217;51.220;5.308;2022-07-04T05:43:49;15.10;99.90
41481;DHT22;27217;51.220;5.308;2022-07-04T05:46:15;15.00;99.90
41481;DHT22;27217;51.220;5.308;2022-07-04T05:48:40;15.20;99.90
41481;DHT22;27217;51.220;5.308;2022-07-04T05:51:06;15.20;99.90
41481;DHT22;27217;51.220;5.308;2022-07-04T05:53:33;15.40;99.90
41481;DHT22;27217;51.220;5.308;2022-07-04T05:55:59;15.50;99.90
41481;DHT22;27217;51.220;5.308;2022-07-04T05:58:25;15.50;99.90
41481;DHT22;27217;51.220;5.308;2022-07-04T06:00:50;15.50;99.90
41481;DHT22;27217;51.220;5.308;2022-07-04T06:03:16;16.00;99.90
41481;DHT22;27217;51.220;5.308;2022-07-04T06:05:42;15.80;99.90
41481;DHT22;27217;51.220;5.308;2022-07-04T06:08:08;15.80;99.90
41481;DHT22;27217;51.220;5.308;2022-07-04T06:10:34;15.90;99.90
41481;DHT22;27217;51.220;5.308;2022-07-04T06:13:00;16.20;99.90
41481;DHT22;27217;51.220;5.308;2022-07-04T06:15:25;16.60;99.90
41481;DHT22;27217;51.220;5.308;2022-07-04T06:17:51;16.70;99.90
41481;DHT22;27217;51.220;5.308;2022-07-04T06:20:19;16.50;99.90
41481;DHT22;27217;51.220;5.308;2022-07-04T06:22:46;16.50;99.90
41481;DHT22;27217;51.220;5.308;2022-07-04T06:25:15;16.60;99.90
41481;DHT22;27217;51.220;5.308;2022-07-04T06:27:42;16.90;99.90
41481;DHT22;27217;51.220;5.308;2022-07-04T06:30:08;16.60;99.90
41481;DHT22;27217;51.220;5.308;2022-07-04T06:32:47;16.90;99.90
41481;DHT22;27217;51.220;5.308;2022-07-04T06:35:14;16.80;99.90
41481;DHT22;27217;51.220;5.308;2022-07-04T06:38:00;17.20;99.90
41481;DHT22;27217;51.220;5.308;2022-07-04T06:40:26;17.30;99.90
41481;DHT22;27217;51.220;5.308;2022-07-04T06:42:52;17.00;99.90
41481;DHT22;27217;51.220;5.308;2022-07-04T06:45:18;17.10;99.90
41481;DHT22;27217;51.220;5.308;2022-07-04T06:47:44;17.00;99.90
41481;DHT22;27217;51.220;5.308;2022-07-04T06:50:10;17.30;99.90
41481;DHT22;27217;51.220;5.308;2022-07-04T06:52:36;17.20;99.90
41481;DHT22;27217;51.220;5.308;2022-07-04T06:55:02;17.40;99.90
41481;DHT22;27217;51.220;5.308;2022-07-04T06:57:28;17.60;99.90
41481;DHT22;27217;51.220;5.308;2022-07-04T06:59:53;17.70;99.90
41481;DHT22;27217;51.220;5.308;2022-07-04T07:02:19;17.60;99.90
41481;DHT22;27217;51.220;5.308;2022-07-04T07:04:44;17.40;99.90
41481;DHT22;27217;51.220;5.308;2022-07-04T07:07:10;17.50;99.90
41481;DHT22;27217;51.220;5.308;2022-07-04T07:09:35;17.60;99.90
41481;DHT22;27217;51.220;5.308;2022-07-04T07:12:01;17.60;99.90
41481;DHT22;27217;51.220;5.308;2022-07-04T07:14:27;17.90;99.90
41481;DHT22;27217;51.220;5.308;2022-07-04T07:16:52;17.90;99.90
41481;DHT22;27217;51.220;5.308;2022-07-04T07:19:18;17.90;99.90
41481;DHT22;27217;51.220;5.308;2022-07-04T07:21:44;18.00;99.90
41481;DHT22;27217;51.220;5.308;2022-07-04T07:24:10;18.20;99.90
41481;DHT22;27217;51.220;5.308;2022-07-04T07:26:36;18.00;99.90
41481;DHT22;27217;51.220;5.308;2022-07-04T07:29:01;18.00;99.90
41481;DHT22;27217;51.220;5.308;2022-07-04T07:31:27;18.10;99.90
41481;DHT22;27217;51.220;5.308;2022-07-04T07:33:53;18.10;99.90
41481;DHT22;27217;51.220;5.308;2022-07-04T07:36:19;18.20;99.90
41481;DHT22;27217;51.220;5.308;2022-07-04T07:38:44;18.50;99.90
41481;DHT22;27217;51.220;5.308;2022-07-04T07:41:10;18.70;99.90
41481;DHT22;27217;51.220;5.308;2022-07-04T07:43:36;18.40;99.90
41481;DHT22;27217;51.220;5.308;2022-07-04T07:46:05;18.40;99.90
41481;DHT22;27217;51.220;5.308;2022-07-04T07:48:31;18.50;99.90
41481;DHT22;27217;51.220;5.308;2022-07-04T07:50:57;18.60;99.90
41481;DHT22;27217;51.220;5.308;2022-07-04T07:53:23;18.60;99.90
41481;DHT22;27217;51.220;5.308;2022-07-04T07:55:49;18.80;99.90
41481;DHT22;27217;51.220;5.308;2022-07-04T07:58:14;19.00;99.90
41481;DHT22;27217;51.220;5.308;2022-07-04T08:00:40;19.00;99.90
41481;DHT22;27217;51.220;5.308;2022-07-04T08:03:05;19.10;99.90
41481;DHT22;27217;51.220;5.308;2022-07-04T08:05:49;19.00;99.90
41481;DHT22;27217;51.220;5.308;2022-07-04T08:08:16;19.10;99.90
41481;DHT22;27217;51.220;5.308;2022-07-04T08:10:41;19.20;99.90
41481;DHT22;27217;51.220;5.308;2022-07-04T08:13:07;19.40;99.90
41481;DHT22;27217;51.220;5.308;2022-07-04T08:15:32;19.10;99.90
41481;DHT22;27217;51.220;5.308;2022-07-04T08:17:58;19.30;99.90
41481;DHT22;27217;51.220;5.308;2022-07-04T08:20:24;19.20;99.90
41481;DHT22;27217;51.220;5.308;2022-07-04T08:22:49;19.30;99.90
41481;DHT22;27217;51.220;5.308;2022-07-04T08:25:15;19.30;99.90
41481;DHT22;27217;51.220;5.308;2022-07-04T08:27:42;19.50;99.90
41481;DHT22;27217;51.220;5.308;2022-07-04T08:30:08;19.50;99.90
41481;DHT22;27217;51.220;5.308;2022-07-04T08:32:34;19.70;99.90
41481;DHT22;27217;51.220;5.308;2022-07-04T08:35:00;19.60;99.90
41481;DHT22;27217;51.220;5.308;2022-07-04T08:37:26;19.70;99.90
41481;DHT22;27217;51.220;5.308;2022-07-04T08:39:53;19.90;99.90
41481;DHT22;27217;51.220;5.308;2022-07-04T08:42:20;19.90;99.90
41481;DHT22;27217;51.220;5.308;2022-07-04T08:44:50;20.00;99.90
41481;DHT22;27217;51.220;5.308;2022-07-04T08:47:20;19.90;99.90
41481;DHT22;27217;51.220;5.308;2022-07-04T08:49:50;20.00;99.90
41481;DHT22;27217;51.220;5.308;2022-07-04T08:52:18;20.00;99.90
41481;DHT22;27217;51.220;5.308;2022-07-04T08:54:50;20.00;99.90
41481;DHT22;27217;51.220;5.308;2022-07-04T08:57:34;19.90;99.90
41481;DHT22;27217;51.220;5.308;2022-07-04T09:00:18;20.30;99.90
41481;DHT22;27217;51.220;5.308;2022-07-04T09:02:44;20.40;99.90
41481;DHT22;27217;51.220;5.308;2022-07-04T09:05:09;20.70;99.90
41481;DHT22;27217;51.220;5.308;2022-07-04T09:07:35;20.60;99.90
41481;DHT22;27217;51.220;5.308;2022-07-04T09:10:01;20.70;99.90
41481;DHT22;27217;51.220;5.308;2022-07-04T09:12:27;20.60;99.90
41481;DHT22;27217;51.220;5.308;2022-07-04T09:14:53;20.60;99.90
41481;DHT22;27217;51.220;5.308;2022-07-04T09:17:19;20.90;99.90
41481;DHT22;27217;51.220;5.308;2022-07-04T09:19:45;21.00;99.90
41481;DHT22;27217;51.220;5.308;2022-07-04T09:22:11;21.30;99.90
41481;DHT22;27217;51.220;5.308;2022-07-04T09:24:43;21.30;99.90
41481;DHT22;27217;51.220;5.308;2022-07-04T09:27:09;21.50;99.90
41481;DHT22;27217;51.220;5.308;2022-07-04T09:29:39;21.60;99.90
41481;DHT22;27217;51.220;5.308;2022-07-04T09:32:23;21.30;99.90
41481;DHT22;27217;51.220;5.308;2022-07-04T09:34:53;21.20;99.90
41481;DHT22;27217;51.220;5.308;2022-07-04T09:37:20;21.20;99.90
41481;DHT22;27217;51.220;5.308;2022-07-04T09:39:45;21.30;99.90
41481;DHT22;27217;51.220;5.308;2022-07-04T09:42:11;21.30;99.90
41481;DHT22;27217;51.220;5.308;2022-07-04T09:44:43;21.30;99.90
41481;DHT22;27217;51.220;5.308;2022-07-04T09:47:22;21.40;99.90
41481;DHT22;27217;51.220;5.308;2022-07-04T09:50:01;21.70;99.90
41481;DHT22;27217;51.220;5.308;2022-07-04T09:52:26;21.80;99.90
41481;DHT22;27217;51.220;5.308;2022-07-04T09:54:56;22.20;99.90
41481;DHT22;27217;51.220;5.308;2022-07-04T09:57:22;21.90;99.90
41481;DHT22;27217;51.220;5.308;2022-07-04T09:59:48;22.10;99.90
41481;DHT22;27217;51.220;5.308;2022-07-04T10:02:14;22.00;99.90
41481;DHT22;27217;51.220;5.308;2022-07-04T10:04:50;22.10;99.90
41481;DHT22;27217;51.220;5.308;2022-07-04T10:07:38;22.10;99.90
41481;DHT22;27217;51.220;5.308;2022-07-04T10:12:53;22.50;99.90
41481;DHT22;27217;51.220;5.308;2022-07-04T10:15:19;23.10;99.90
41481;DHT22;27217;51.220;5.308;2022-07-04T10:17:45;22.80;99.90
41481;DHT22;27217;51.220;5.308;2022-07-04T10:20:11;22.80;99.90
41481;DHT22;27217;51.220;5.308;2022-07-04T10:22:37;22.60;99.90
41481;DHT22;27217;51.220;5.308;2022-07-04T10:25:03;22.40;99.90
41481;DHT22;27217;51.220;5.308;2022-07-04T10:27:30;22.80;99.90
41481;DHT22;27217;51.220;5.308;2022-07-04T10:29:55;22.50;99.90
41481;DHT22;27217;51.220;5.308;2022-07-04T10:32:22;22.40;99.90
41481;DHT22;27217;51.220;5.308;2022-07-04T10:34:48;22.80;99.90
41481;DHT22;27217;51.220;5.308;2022-07-04T10:37:14;22.80;99.90
41481;DHT22;27217;51.220;5.308;2022-07-04T10:39:41;23.00;99.90
41481;DHT22;27217;51.220;5.308;2022-07-04T10:42:06;23.00;99.90
41481;DHT22;27217;51.220;5.308;2022-07-04T10:44:33;23.30;99.70
41481;DHT22;27217;51.220;5.308;2022-07-04T10:47:05;23.10;99.70
41481;DHT22;27217;51.220;5.308;2022-07-04T10:49:30;23.20;99.70
41481;DHT22;27217;51.220;5.308;2022-07-04T10:52:10;23.40;99.90
41481;DHT22;27217;51.220;5.308;2022-07-04T10:54:37;24.00;99.00
41481;DHT22;27217;51.220;5.308;2022-07-04T10:59:36;24.60;97.40
41481;DHT22;27217;51.220;5.308;2022-07-04T11:07:15;25.10;95.90
41481;DHT22;27217;51.220;5.308;2022-07-04T11:09:42;24.70;96.40
41481;DHT22;27217;51.220;5.308;2022-07-04T11:12:08;24.10;96.90
41481;DHT22;27217;51.220;5.308;2022-07-04T11:14:44;24.20;96.70
41481;DHT22;27217;51.220;5.308;2022-07-04T11:17:14;24.70;96.40
41481;DHT22;27217;51.220;5.308;2022-07-04T11:19:40;24.10;96.90
41481;DHT22;27217;51.220;5.308;2022-07-04T11:22:06;23.70;97.40
41481;DHT22;27217;51.220;5.308;2022-07-04T11:24:34;23.50;98.20
41481;DHT22;27217;51.220;5.308;2022-07-04T11:27:00;25.50;95.80
41481;DHT22;27217;51.220;5.308;2022-07-04T11:29:27;27.00;92.50
41481;DHT22;27217;51.220;5.308;2022-07-04T11:31:53;28.30;90.40
41481;DHT22;27217;51.220;5.308;2022-07-04T11:34:20;28.60;87.80
41481;DHT22;27217;51.220;5.308;2022-07-04T11:36:47;29.00;86.70
41481;DHT22;27217;51.220;5.308;2022-07-04T11:39:17;28.50;85.30
41481;DHT22;27217;51.220;5.308;2022-07-04T11:41:47;29.60;82.40
41481;DHT22;27217;51.220;5.308;2022-07-04T11:44:32;30.90;77.10
41481;DHT22;27217;51.220;5.308;2022-07-04T11:47:20;32.70;69.80
41481;DHT22;27217;51.220;5.308;2022-07-04T11:49:56;30.10;70.70
41481;DHT22;27217;51.220;5.308;2022-07-04T11:52:23;30.30;72.30
41481;DHT22;27217;51.220;5.308;2022-07-04T11:54:49;30.50;70.20
41481;DHT22;27217;51.220;5.308;2022-07-04T12:00:04;29.70;71.70
41481;DHT22;27217;51.220;5.308;2022-07-04T12:02:31;28.80;74.30
41481;DHT22;27217;51.220;5.308;2022-07-04T12:04:58;28.40;73.50
41481;DHT22;27217;51.220;5.308;2022-07-04T12:07:25;30.10;73.30
41481;DHT22;27217;51.220;5.308;2022-07-04T12:09:51;30.50;69.60
41481;DHT22;27217;51.220;5.308;2022-07-04T12:12:18;29.40;70.30
41481;DHT22;27217;51.220;5.308;2022-07-04T12:17:28;28.60;72.30
41481;DHT22;27217;51.220;5.308;2022-07-04T12:19:55;30.60;68.50
41481;DHT22;27217;51.220;5.308;2022-07-04T12:24:53;30.60;68.40
41481;DHT22;27217;51.220;5.308;2022-07-04T12:27:19;29.00;70.90
41481;DHT22;27217;51.220;5.308;2022-07-04T12:29:48;29.10;70.70
41481;DHT22;27217;51.220;5.308;2022-07-04T12:32:14;28.90;70.70
41481;DHT22;27217;51.220;5.308;2022-07-04T12:34:39;27.70;72.60
41481;DHT22;27217;51.220;5.308;2022-07-04T12:37:09;28.90;71.30
41481;DHT22;27217;51.220;5.308;2022-07-04T12:39:36;29.30;71.20
41481;DHT22;27217;51.220;5.308;2022-07-04T12:42:15;28.10;73.30
41481;DHT22;27217;51.220;5.308;2022-07-04T12:44:42;27.30;76.20
41481;DHT22;27217;51.220;5.308;2022-07-04T12:47:09;25.90;79.40
41481;DHT22;27217;51.220;5.308;2022-07-04T12:49:35;26.00;82.30
41481;DHT22;27217;51.220;5.308;2022-07-04T12:52:07;26.90;82.00
41481;DHT22;27217;51.220;5.308;2022-07-04T12:54:33;28.30;78.40
41481;DHT22;27217;51.220;5.308;2022-07-04T12:57:09;30.40;74.80
41481;DHT22;27217;51.220;5.308;2022-07-04T12:59:35;31.70;69.30
41481;DHT22;27217;51.220;5.308;2022-07-04T13:02:00;32.80;66.20
41481;DHT22;27217;51.220;5.308;2022-07-04T13:04:26;31.40;68.80
41481;DHT22;27217;51.220;5.308;2022-07-04T13:06:52;30.40;70.30
41481;DHT22;27217;51.220;5.308;2022-07-04T13:09:18;30.60;70.30
41481;DHT22;27217;51.220;5.308;2022-07-04T13:11:44;29.10;72.70
41481;DHT22;27217;51.220;5.308;2022-07-04T13:14:28;27.70;77.60
41481;DHT22;27217;51.220;5.308;2022-07-04T13:16:54;28.50;75.30
41481;DHT22;27217;51.220;5.308;2022-07-04T13:19:19;29.90;73.50
41481;DHT22;27217;51.220;5.308;2022-07-04T13:21:45;30.40;72.60
41481;DHT22;27217;51.220;5.308;2022-07-04T13:24:12;31.70;69.80
41481;DHT22;27217;51.220;5.308;2022-07-04T13:26:38;30.70;70.10
41481;DHT22;27217;51.220;5.308;2022-07-04T13:29:05;30.10;71.10
41481;DHT22;27217;51.220;5.308;2022-07-04T13:31:31;28.40;73.40
41481;DHT22;27217;51.220;5.308;2022-07-04T13:33:57;29.60;73.10
41481;DHT22;27217;51.220;5.308;2022-07-04T13:36:22;31.00;69.70
41481;DHT22;27217;51.220;5.308;2022-07-04T13:38:48;30.00;69.30
41481;DHT22;27217;51.220;5.308;2022-07-04T13:41:14;28.20;74.00
41481;DHT22;27217;51.220;5.308;2022-07-04T13:43:40;30.00;71.40
41481;DHT22;27217;51.220;5.308;2022-07-04T13:46:05;31.70;68.50
41481;DHT22;27217;51.220;5.308;2022-07-04T13:48:31;31.70;66.80
41481;DHT22;27217;51.220;5.308;2022-07-04T13:50:56;31.30;69.10
41481;DHT22;27217;51.220;5.308;2022-07-04T13:53:22;31.20;65.90
41481;DHT22;27217;51.220;5.308;2022-07-04T13:55:48;30.40;71.00
41481;DHT22;27217;51.220;5.308;2022-07-04T13:58:13;31.30;69.20
41481;DHT22;27217;51.220;5.308;2022-07-04T14:00:40;32.20;67.80
41481;DHT22;27217;51.220;5.308;2022-07-04T14:03:13;33.00;64.60
41481;DHT22;27217;51.220;5.308;2022-07-04T14:05:41;32.50;63.50
41481;DHT22;27217;51.220;5.308;2022-07-04T14:08:07;32.30;63.20
41481;DHT22;27217;51.220;5.308;2022-07-04T14:10:33;31.00;64.80
41481;DHT22;27217;51.220;5.308;2022-07-04T14:12:59;31.50;66.20
41481;DHT22;27217;51.220;5.308;2022-07-04T14:15:25;32.20;63.90
41481;DHT22;27217;51.220;5.308;2022-07-04T14:17:51;32.30;65.10
41481;DHT22;27217;51.220;5.308;2022-07-04T14:20:17;33.80;63.00
41481;DHT22;27217;51.220;5.308;2022-07-04T14:22:43;35.50;60.60
41481;DHT22;27217;51.220;5.308;2022-07-04T14:25:09;33.60;60.30
41481;DHT22;27217;51.220;5.308;2022-07-04T14:27:36;32.60;62.90
41481;DHT22;27217;51.220;5.308;2022-07-04T14:30:03;31.80;63.10
41481;DHT22;27217;51.220;5.308;2022-07-04T14:32:29;32.30;63.10
41481;DHT22;27217;51.220;5.308;2022-07-04T14:34:55;33.20;61.60
41481;DHT22;27217;51.220;5.308;2022-07-04T14:37:21;33.20;60.20
41481;DHT22;27217;51.220;5.308;2022-07-04T14:39:47;33.20;60.00
41481;DHT22;27217;51.220;5.308;2022-07-04T14:42:13;33.80;59.30
41481;DHT22;27217;51.220;5.308;2022-07-04T14:44:39;35.20;57.80
41481;DHT22;27217;51.220;5.308;2022-07-04T14:47:04;35.10;58.70
41481;DHT22;27217;51.220;5.308;2022-07-04T14:49:30;34.20;58.80
41481;DHT22;27217;51.220;5.308;2022-07-04T14:51:56;31.50;62.10
41481;DHT22;27217;51.220;5.308;2022-07-04T14:54:23;29.60;65.00
41481;DHT22;27217;51.220;5.308;2022-07-04T14:56:48;29.00;67.60
41481;DHT22;27217;51.220;5.308;2022-07-04T14:59:15;29.10;67.60
41481;DHT22;27217;51.220;5.308;2022-07-04T15:01:41;28.60;69.30
41481;DHT22;27217;51.220;5.308;2022-07-04T15:04:06;29.50;68.40
41481;DHT22;27217;51.220;5.308;2022-07-04T15:06:32;32.10;64.00
41481;DHT22;27217;51.220;5.308;2022-07-04T15:08:58;34.70;60.50
41481;DHT22;27217;51.220;5.308;2022-07-04T15:11:23;35.80;58.20
41481;DHT22;27217;51.220;5.308;2022-07-04T15:13:49;34.70;58.50
41481;DHT22;27217;51.220;5.308;2022-07-04T15:16:15;32.60;59.90
41481;DHT22;27217;51.220;5.308;2022-07-04T15:18:41;30.50;63.60
41481;DHT22;27217;51.220;5.308;2022-07-04T15:21:07;29.70;66.20
41481;DHT22;27217;51.220;5.308;2022-07-04T15:23:51;31.00;64.30
41481;DHT22;27217;51.220;5.308;2022-07-04T15:26:35;31.50;63.70
41481;DHT22;27217;51.220;5.308;2022-07-04T15:29:01;32.50;62.90
41481;DHT22;27217;51.220;5.308;2022-07-04T15:31:27;33.90;59.10
41481;DHT22;27217;51.220;5.308;2022-07-04T15:33:53;34.30;59.00
41481;DHT22;27217;51.220;5.308;2022-07-04T15:36:19;35.10;58.40
41481;DHT22;27217;51.220;5.308;2022-07-04T15:38:45;35.70;57.20
41481;DHT22;27217;51.220;5.308;2022-07-04T15:41:10;36.20;55.90
41481;DHT22;27217;51.220;5.308;2022-07-04T15:43:40;36.80;55.50
41481;DHT22;27217;51.220;5.308;2022-07-04T15:46:06;37.90;53.60
41481;DHT22;27217;51.220;5.308;2022-07-04T15:48:32;36.10;54.50
41481;DHT22;27217;51.220;5.308;2022-07-04T15:50:58;35.00;55.40